Time;durP1;ratioP1;P1;durP2;ratioP2;P2;SDS_P1;SDS_P2;PMS_P1;PMS_P2;Temp;Humidity;BMP_temperature;BMP_pressure;BME280_temperature;BME280_humidity;BME280_pressure;Samples;Min_cycle;Max_cycle;Signal;HPM_P1;HPM_P2
2022/02/28 00:00:47;;;;;;;9.33;6.50;;;2.90;71.20;;;;;;5019411;28;20501;-48
2022/02/28 00:03:14;;;;;;;8.00;5.90;;;2.80;71.30;;;;;;5019279;28;20505;-48
2022/02/28 00:05:41;;;;;;;8.27;6.03;;;2.80;71.30;;;;;;5002072;28;20554;-48
2022/02/28 00:08:07;;;;;;;8.33;5.60;;;2.80;71.30;;;;;;5023010;28;20593;-48
2022/02/28 00:10:34;;;;;;;6.70;5.33;;;2.80;71.40;;;;;;5020943;28;20468;-48
2022/02/28 00:13:01;;;;;;;7.03;6.00;;;2.70;71.40;;;;;;5020369;28;20452;-48
2022/02/28 00:15:29;;;;;;;10.03;6.27;;;2.70;71.50;;;;;;5020769;28;20472;-48
2022/02/28 00:17:56;;;;;;;8.43;6.20;;;2.60;71.60;;;;;;5022856;28;20460;-48
2022/02/28 00:20:23;;;;;;;5.93;5.30;;;2.60;71.70;;;;;;5016238;28;20464;-48
2022/02/28 00:22:51;;;;;;;10.87;5.50;;;2.50;71.90;;;;;;5016253;28;21093;-48
2022/02/28 00:25:19;;;;;;;10.23;6.40;;;2.50;72.00;;;;;;5004165;28;20463;-48
2022/02/28 00:27:46;;;;;;;10.30;6.70;;;2.50;72.00;;;;;;5029709;28;21032;-48
2022/02/28 00:30:13;;;;;;;12.53;8.23;;;2.50;72.20;;;;;;5019477;28;20554;-47
2022/02/28 00:32:40;;;;;;;10.40;7.93;;;2.50;72.10;;;;;;5023286;28;20444;-47
2022/02/28 00:35:08;;;;;;;11.43;8.27;;;2.60;72.20;;;;;;5021058;28;21055;-48
2022/02/28 00:37:35;;;;;;;12.30;8.47;;;2.50;72.00;;;;;;5023250;28;20467;-48
2022/02/28 00:40:04;;;;;;;11.70;9.10;;;2.50;72.00;;;;;;5020256;28;20484;-47
2022/02/28 00:42:31;;;;;;;12.00;8.50;;;2.40;72.10;;;;;;5021217;28;20543;-47
2022/02/28 00:44:58;;;;;;;11.97;8.50;;;2.40;72.30;;;;;;5026047;28;20497;-47
2022/02/28 00:47:25;;;;;;;10.20;8.03;;;2.30;72.30;;;;;;5024546;28;20493;-47
2022/02/28 00:49:51;;;;;;;9.90;7.10;;;2.30;72.50;;;;;;5037047;28;20894;-47
2022/02/28 00:52:18;;;;;;;10.43;7.33;;;2.30;72.50;;;;;;5024376;28;20447;-48
2022/02/28 00:54:45;;;;;;;9.17;6.90;;;2.30;72.50;;;;;;5022119;28;20447;-47
2022/02/28 00:57:12;;;;;;;9.10;6.33;;;2.20;72.60;;;;;;5025177;28;21083;-47
2022/02/28 00:59:42;;;;;;;9.60;6.67;;;2.20;72.60;;;;;;5024467;28;20445;-47
2022/02/28 01:02:08;;;;;;;10.20;8.17;;;2.20;72.70;;;;;;5025653;28;20491;-47
2022/02/28 01:04:36;;;;;;;10.30;8.20;;;2.20;72.80;;;;;;5023678;28;20538;-47
2022/02/28 01:07:04;;;;;;;16.90;9.57;;;2.20;72.80;;;;;;5023790;28;20459;-47
2022/02/28 01:09:32;;;;;;;12.90;11.10;;;2.20;73.00;;;;;;5036881;28;20489;-47
2022/02/28 01:12:00;;;;;;;14.33;10.87;;;2.20;73.10;;;;;;5033938;28;20459;-47
2022/02/28 01:14:26;;;;;;;16.70;11.40;;;2.20;72.90;;;;;;5018979;28;20462;-47
2022/02/28 01:16:53;;;;;;;12.17;9.27;;;2.20;73.20;;;;;;5024049;28;20977;-47
2022/02/28 01:19:20;;;;;;;13.90;9.53;;;2.20;73.00;;;;;;5020758;28;20467;-47
2022/02/28 01:21:48;;;;;;;10.40;8.47;;;2.20;73.00;;;;;;5004187;28;20985;-47
2022/02/28 01:24:15;;;;;;;12.13;8.03;;;2.20;73.10;;;;;;5022583;28;20561;-47
2022/02/28 01:26:42;;;;;;;12.13;7.17;;;2.20;73.20;;;;;;5026101;28;20530;-47
2022/02/28 01:29:09;;;;;;;12.30;7.10;;;2.20;73.10;;;;;;5021983;28;21197;-47
2022/02/28 01:31:35;;;;;;;9.57;6.10;;;2.10;73.10;;;;;;5023479;28;20451;-47
2022/02/28 01:34:03;;;;;;;9.73;6.27;;;2.10;73.30;;;;;;5021508;28;20455;-47
2022/02/28 01:36:29;;;;;;;7.00;5.77;;;2.10;73.40;;;;;;5021469;28;20766;-47
2022/02/28 01:38:56;;;;;;;6.17;5.33;;;2.00;73.30;;;;;;5020559;28;20464;-47
2022/02/28 01:41:23;;;;;;;6.23;5.27;;;2.00;73.30;;;;;;5023556;28;20528;-47
2022/02/28 01:43:50;;;;;;;6.50;5.30;;;2.00;73.30;;;;;;5021421;28;20876;-47
2022/02/28 01:46:17;;;;;;;7.47;6.60;;;2.10;73.50;;;;;;5023158;28;21009;-47
2022/02/28 01:48:44;;;;;;;8.20;6.47;;;2.00;73.40;;;;;;5021681;28;20483;-47
2022/02/28 01:51:11;;;;;;;10.23;6.93;;;2.00;73.40;;;;;;5024678;28;20534;-47
2022/02/28 01:53:37;;;;;;;7.10;6.33;;;2.00;73.40;;;;;;5025127;28;20448;-47
2022/02/28 01:56:04;;;;;;;9.53;6.33;;;1.90;73.50;;;;;;5024460;28;20462;-47
2022/02/28 01:58:36;;;;;;;7.43;5.90;;;1.90;73.50;;;;;;5022378;28;20491;-47
2022/02/28 02:01:05;;;;;;;10.23;6.33;;;1.90;73.60;;;;;;5008619;28;21041;-48
2022/02/28 02:03:32;;;;;;;8.70;6.30;;;1.90;73.70;;;;;;5022914;28;21062;-48
2022/02/28 02:06:01;;;;;;;9.70;6.40;;;1.90;73.80;;;;;;5018922;28;20463;-48
2022/02/28 02:08:28;;;;;;;8.13;5.93;;;1.90;73.80;;;;;;5018937;28;20569;-47
2022/02/28 02:10:56;;;;;;;9.57;6.17;;;2.00;73.80;;;;;;5023294;28;20844;-47
2022/02/28 02:13:23;;;;;;;13.77;6.90;;;1.90;73.80;;;;;;5007388;28;20459;-47
2022/02/28 02:15:50;;;;;;;6.23;5.20;;;1.90;73.90;;;;;;5013514;28;20491;-47
2022/02/28 02:18:17;;;;;;;7.10;5.67;;;1.90;73.90;;;;;;5020351;28;20523;-47
2022/02/28 02:20:43;;;;;;;7.20;5.60;;;1.90;73.90;;;;;;5024093;28;20478;-47
2022/02/28 02:23:12;;;;;;;8.30;6.80;;;1.90;73.90;;;;;;5022799;28;20474;-47
2022/02/28 02:25:40;;;;;;;7.17;5.70;;;1.90;73.90;;;;;;5019195;28;20539;-47
2022/02/28 02:28:10;;;;;;;7.00;5.77;;;1.80;73.90;;;;;;5019393;28;20491;-47
2022/02/28 02:30:37;;;;;;;9.63;5.97;;;1.80;73.90;;;;;;5021834;28;20461;-47
2022/02/28 02:33:04;;;;;;;7.17;5.60;;;1.90;74.00;;;;;;5004582;28;20463;-48
2022/02/28 02:35:31;;;;;;;6.87;6.20;;;1.90;73.90;;;;;;5023007;28;20550;-47
2022/02/28 02:37:58;;;;;;;8.03;6.73;;;1.90;73.90;;;;;;5024277;28;20818;-47
2022/02/28 02:40:25;;;;;;;7.70;6.47;;;1.90;73.90;;;;;;5005835;28;20844;-47
2022/02/28 02:42:52;;;;;;;8.93;6.93;;;1.90;73.80;;;;;;5024578;28;20571;-47
2022/02/28 02:45:19;;;;;;;9.87;6.60;;;1.90;73.80;;;;;;5021885;28;20465;-47
2022/02/28 02:47:46;;;;;;;9.17;7.07;;;1.80;73.80;;;;;;5023158;28;20917;-47
2022/02/28 02:50:15;;;;;;;7.10;6.30;;;1.80;73.80;;;;;;5004382;28;20502;-47
2022/02/28 02:52:42;;;;;;;12.47;7.60;;;1.80;74.00;;;;;;5006349;28;20460;-47
2022/02/28 02:55:09;;;;;;;8.70;5.97;;;1.70;74.00;;;;;;5022277;28;21003;-47
2022/02/28 02:57:36;;;;;;;11.47;6.77;;;1.70;74.10;;;;;;5021611;28;20467;-47
2022/02/28 03:00:07;;;;;;;6.20;5.57;;;1.70;74.10;;;;;;5022869;28;20491;-47
2022/02/28 03:02:34;;;;;;;7.57;5.57;;;1.70;74.10;;;;;;5025065;28;20536;-47
2022/02/28 03:05:01;;;;;;;7.57;6.03;;;1.70;74.10;;;;;;5022635;28;20513;-47
2022/02/28 03:07:28;;;;;;;7.77;6.40;;;1.80;73.90;;;;;;5027755;28;20459;-47
2022/02/28 03:09:54;;;;;;;9.03;6.60;;;1.80;73.70;;;;;;5022122;28;20984;-47
2022/02/28 03:12:21;;;;;;;8.70;6.40;;;1.80;73.90;;;;;;5023346;28;20450;-47
2022/02/28 03:14:48;;;;;;;7.00;6.30;;;1.80;73.70;;;;;;5037731;28;20475;-47
2022/02/28 03:17:15;;;;;;;10.57;6.47;;;1.80;73.70;;;;;;5004024;28;20968;-47
2022/02/28 03:19:42;;;;;;;9.33;6.00;;;1.70;73.70;;;;;;5006596;28;20839;-47
2022/02/28 03:22:09;;;;;;;6.87;6.00;;;1.70;73.80;;;;;;5024097;28;20466;-47
2022/02/28 03:24:35;;;;;;;11.03;7.30;;;1.60;74.00;;;;;;5021505;28;20465;-47
2022/02/28 03:27:02;;;;;;;10.30;7.70;;;1.60;74.10;;;;;;5035304;28;20839;-47
2022/02/28 03:29:29;;;;;;;11.57;7.30;;;1.60;74.10;;;;;;5020032;28;21066;-47
2022/02/28 03:31:56;;;;;;;7.70;6.07;;;1.50;74.30;;;;;;5022641;28;20459;-47
2022/02/28 03:34:23;;;;;;;13.43;6.57;;;1.50;74.40;;;;;;5021586;28;20470;-47
2022/02/28 03:36:49;;;;;;;8.63;6.80;;;1.50;74.50;;;;;;5021841;28;20594;-47
2022/02/28 03:39:16;;;;;;;9.03;6.63;;;1.50;74.60;;;;;;5021111;28;20464;-47
2022/02/28 03:41:43;;;;;;;11.80;7.70;;;1.40;74.50;;;;;;5019696;28;20452;-47
2022/02/28 03:44:10;;;;;;;12.33;6.97;;;1.40;74.60;;;;;;5022543;28;21018;-47
2022/02/28 03:46:37;;;;;;;13.17;7.87;;;1.40;74.60;;;;;;5022630;28;20488;-47
2022/02/28 03:49:04;;;;;;;9.77;6.33;;;1.40;74.60;;;;;;5006224;28;20875;-47
2022/02/28 03:51:32;;;;;;;8.40;5.80;;;1.40;74.70;;;;;;5020925;28;20463;-47
2022/02/28 03:53:59;;;;;;;8.93;6.30;;;1.40;74.60;;;;;;5022881;28;20448;-47
2022/02/28 03:56:26;;;;;;;7.93;6.23;;;1.40;74.60;;;;;;5018195;28;20467;-47
2022/02/28 03:58:52;;;;;;;8.60;6.60;;;1.40;74.70;;;;;;5019292;28;20472;-50
2022/02/28 04:01:19;;;;;;;9.87;6.83;;;1.40;74.70;;;;;;5024273;28;20464;-50
2022/02/28 04:03:46;;;;;;;16.17;7.00;;;1.40;74.80;;;;;;5021811;28;20483;-50
2022/02/28 04:06:13;;;;;;;9.83;6.17;;;1.40;74.80;;;;;;5008572;28;20467;-50
2022/02/28 04:08:40;;;;;;;7.47;6.40;;;1.40;74.80;;;;;;5007936;28;20520;-50
2022/02/28 04:11:06;;;;;;;7.83;5.80;;;1.40;74.90;;;;;;5007956;28;20461;-50
2022/02/28 04:13:33;;;;;;;9.50;7.30;;;1.30;75.00;;;;;;5024066;28;20474;-49
2022/02/28 04:16:00;;;;;;;7.47;6.20;;;1.40;75.00;;;;;;5022149;28;20450;-50
2022/02/28 04:18:29;;;;;;;8.13;5.20;;;1.40;74.90;;;;;;5021899;28;20957;-50
2022/02/28 04:20:56;;;;;;;7.40;6.20;;;1.40;75.00;;;;;;5022577;28;20470;-50
2022/02/28 04:23:23;;;;;;;8.90;7.10;;;1.40;75.00;;;;;;5019059;28;20460;-50
2022/02/28 04:25:50;;;;;;;9.07;5.43;;;1.30;75.00;;;;;;5022988;28;20456;-50
2022/02/28 04:28:17;;;;;;;8.97;5.50;;;1.40;75.20;;;;;;5038085;28;20451;-50
2022/02/28 04:30:44;;;;;;;11.13;9.97;;;1.40;75.20;;;;;;5021597;28;20455;-50
2022/02/28 04:33:11;;;;;;;8.13;6.43;;;1.40;75.00;;;;;;5022819;28;20861;-50
2022/02/28 04:35:38;;;;;;;10.50;7.87;;;1.40;75.00;;;;;;5023056;28;20455;-50
2022/02/28 04:38:05;;;;;;;10.30;7.10;;;1.40;75.00;;;;;;5020828;28;20478;-50
2022/02/28 04:40:33;;;;;;;12.50;7.07;;;1.40;75.00;;;;;;5022606;28;20975;-50
2022/02/28 04:43:00;;;;;;;7.80;6.37;;;1.40;74.90;;;;;;5021899;28;20459;-50
2022/02/28 04:45:27;;;;;;;10.60;6.27;;;1.50;75.00;;;;;;5022138;28;20866;-50
2022/02/28 04:47:54;;;;;;;7.73;6.90;;;1.40;74.90;;;;;;5021248;28;20584;-50
2022/02/28 04:50:21;;;;;;;9.37;6.67;;;1.40;74.80;;;;;;5022362;28;20491;-50
2022/02/28 04:52:50;;;;;;;10.53;7.17;;;1.40;74.80;;;;;;5008605;28;20455;-51
2022/02/28 04:55:22;;;;;;;10.03;7.80;;;1.40;74.60;;;;;;5017101;28;20959;-50
2022/02/28 04:57:49;;;;;;;8.80;6.70;;;1.40;74.60;;;;;;5021642;28;20500;-51
2022/02/28 05:00:16;;;;;;;11.40;6.67;;;1.40;74.70;;;;;;5024118;28;20490;-51
2022/02/28 05:02:43;;;;;;;11.23;7.50;;;1.40;74.80;;;;;;5007381;28;20456;-50
2022/02/28 05:05:10;;;;;;;11.97;7.57;;;1.40;74.80;;;;;;5020228;28;20463;-50
2022/02/28 05:07:37;;;;;;;9.47;5.60;;;1.40;74.90;;;;;;5001044;28;20460;-51
2022/02/28 05:10:05;;;;;;;10.90;6.70;;;1.30;74.80;;;;;;5024102;28;20503;-50
2022/02/28 05:12:32;;;;;;;10.23;7.23;;;1.30;74.90;;;;;;5019524;28;20487;-50
2022/02/28 05:14:59;;;;;;;11.33;7.50;;;1.30;75.00;;;;;;5021460;28;20457;-50
2022/02/28 05:17:26;;;;;;;11.03;6.00;;;1.20;75.10;;;;;;5024078;28;20965;-50
2022/02/28 05:19:52;;;;;;;9.43;7.13;;;1.20;75.20;;;;;;5004783;28;20459;-50
2022/02/28 05:22:19;;;;;;;11.30;6.77;;;1.30;75.00;;;;;;5010817;28;20479;-50
2022/02/28 05:24:46;;;;;;;10.67;6.53;;;1.20;75.20;;;;;;5023082;28;20459;-50
2022/02/28 05:27:13;;;;;;;9.80;5.70;;;1.30;75.00;;;;;;5037241;28;20467;-50
2022/02/28 05:29:40;;;;;;;10.43;6.70;;;1.30;74.90;;;;;;5008410;28;20490;-51
2022/02/28 05:32:07;;;;;;;10.10;7.03;;;1.30;74.80;;;;;;5005910;28;20467;-50
2022/02/28 05:34:34;;;;;;;7.10;5.50;;;1.30;74.70;;;;;;5025203;28;20464;-50
2022/02/28 05:37:03;;;;;;;8.80;7.33;;;1.40;74.50;;;;;;5025744;28;20459;-51
2022/02/28 05:39:30;;;;;;;8.40;6.00;;;1.30;74.60;;;;;;5024337;28;21020;-50
2022/02/28 05:41:57;;;;;;;11.80;6.90;;;1.20;74.90;;;;;;5024354;28;20974;-50
2022/02/28 05:44:23;;;;;;;7.73;6.17;;;1.20;75.20;;;;;;5023351;28;20521;-50
2022/02/28 05:46:50;;;;;;;9.63;6.63;;;1.10;75.30;;;;;;5009136;28;20574;-49
2022/02/28 05:49:17;;;;;;;12.33;6.27;;;1.10;75.30;;;;;;5025448;28;20982;-50
2022/02/28 05:51:44;;;;;;;10.93;6.60;;;1.10;75.30;;;;;;5036495;28;20456;-49
2022/02/28 05:54:10;;;;;;;9.23;6.47;;;1.10;75.30;;;;;;5023143;28;20459;-49
2022/02/28 05:56:37;;;;;;;12.30;7.40;;;1.00;75.30;;;;;;5025391;28;20831;-50
2022/02/28 05:59:04;;;;;;;9.57;7.03;;;1.00;75.40;;;;;;5008613;28;20851;-50
2022/02/28 06:01:32;;;;;;;11.20;6.60;;;1.00;75.50;;;;;;5021115;28;20468;-50
2022/02/28 06:03:59;;;;;;;12.30;7.90;;;1.00;75.60;;;;;;5023909;28;20960;-50
2022/02/28 06:06:26;;;;;;;12.00;7.93;;;0.90;75.60;;;;;;5006208;28;20843;-50
2022/02/28 06:08:52;;;;;;;10.97;7.13;;;0.90;75.60;;;;;;5020318;28;20494;-49
2022/02/28 06:11:19;;;;;;;10.07;7.07;;;0.90;75.80;;;;;;5022053;28;20460;-50
2022/02/28 06:13:46;;;;;;;10.43;6.20;;;1.00;75.60;;;;;;5021872;28;20611;-49
2022/02/28 06:16:13;;;;;;;8.90;7.20;;;1.00;75.40;;;;;;5022673;28;20551;-50
2022/02/28 06:18:40;;;;;;;10.03;7.37;;;1.00;75.40;;;;;;5004425;28;20979;-50
2022/02/28 06:21:06;;;;;;;10.03;8.20;;;1.00;75.50;;;;;;5019197;28;20465;-49
2022/02/28 06:23:33;;;;;;;10.30;7.40;;;1.00;75.50;;;;;;5024202;28;20502;-50
2022/02/28 06:26:00;;;;;;;10.13;9.00;;;1.00;75.60;;;;;;5020568;28;20474;-50
2022/02/28 06:28:31;;;;;;;10.47;7.47;;;1.10;75.60;;;;;;5021527;28;20535;-50
2022/02/28 06:30:59;;;;;;;9.90;7.50;;;1.00;75.70;;;;;;5014657;28;20499;-50
2022/02/28 06:33:26;;;;;;;11.87;8.40;;;1.00;75.80;;;;;;5006716;28;20475;-49
2022/02/28 06:35:53;;;;;;;12.30;8.00;;;1.00;75.80;;;;;;5021476;28;20499;-50
2022/02/28 06:38:23;;;;;;;10.90;7.40;;;1.10;75.80;;;;;;5019647;28;20474;-50
2022/02/28 06:40:50;;;;;;;10.00;8.00;;;1.00;75.80;;;;;;5021957;28;20470;-50
2022/02/28 06:43:17;;;;;;;12.23;7.77;;;1.10;75.90;;;;;;5018861;28;20455;-50
2022/02/28 06:45:44;;;;;;;10.80;8.17;;;1.10;75.90;;;;;;5022523;28;20467;-49
2022/02/28 06:48:11;;;;;;;8.57;6.97;;;1.00;75.80;;;;;;5024298;28;20494;-49
2022/02/28 06:50:38;;;;;;;13.33;7.70;;;1.10;76.00;;;;;;5021122;28;20996;-49
2022/02/28 06:53:05;;;;;;;10.93;7.80;;;1.10;76.00;;;;;;5027310;28;20886;-50
2022/02/28 06:55:35;;;;;;;10.93;8.10;;;1.10;75.90;;;;;;5026115;28;20471;-50
2022/02/28 06:58:02;;;;;;;11.73;8.60;;;1.10;75.90;;;;;;5032258;28;20496;-49
2022/02/28 07:00:30;;;;;;;11.67;8.30;;;1.10;76.00;;;;;;5013207;28;21027;-50
2022/02/28 07:02:57;;;;;;;25.87;8.33;;;1.10;76.00;;;;;;5031475;28;20451;-50
2022/02/28 07:05:24;;;;;;;12.27;7.87;;;1.10;76.10;;;;;;5024485;28;20476;-50
2022/02/28 07:07:51;;;;;;;12.00;7.73;;;1.10;76.30;;;;;;5010953;28;20932;-49
2022/02/28 07:10:19;;;;;;;11.73;9.20;;;1.10;76.30;;;;;;5003554;28;20844;-49
2022/02/28 07:12:45;;;;;;;10.87;7.67;;;1.10;76.50;;;;;;5024747;28;20460;-50
2022/02/28 07:15:12;;;;;;;12.87;7.70;;;1.10;76.70;;;;;;5016990;28;20500;-49
2022/02/28 07:17:40;;;;;;;18.00;9.90;;;1.10;76.70;;;;;;5020784;28;20443;-50
2022/02/28 07:20:08;;;;;;;12.27;8.53;;;1.10;76.80;;;;;;5018714;28;20496;-49
2022/02/28 07:22:35;;;;;;;17.93;10.23;;;1.20;77.00;;;;;;5021141;28;20542;-50
2022/02/28 07:25:02;;;;;;;12.13;8.00;;;1.20;77.00;;;;;;4992406;28;20551;-50
2022/02/28 07:27:29;;;;;;;11.10;9.27;;;1.30;76.80;;;;;;5001888;28;20444;-50
2022/02/28 07:29:56;;;;;;;8.33;7.47;;;1.30;76.80;;;;;;5018595;28;21038;-51
2022/02/28 07:32:22;;;;;;;12.47;8.57;;;1.40;76.70;;;;;;5020189;28;20978;-50
2022/02/28 07:34:49;;;;;;;11.23;7.60;;;1.50;76.30;;;;;;5020234;28;20814;-50
2022/02/28 07:37:16;;;;;;;13.10;8.50;;;1.50;76.20;;;;;;5007081;28;20463;-51
2022/02/28 07:39:43;;;;;;;12.53;8.57;;;1.60;75.70;;;;;;5021281;28;20497;-50
2022/02/28 07:42:15;;;;;;;12.63;8.30;;;1.70;75.40;;;;;;5028573;28;20448;-50
2022/02/28 07:44:42;;;;;;;12.00;8.23;;;1.80;74.90;;;;;;5025705;28;20469;-50
2022/02/28 07:47:10;;;;;;;12.67;8.37;;;1.90;74.70;;;;;;5010660;28;20467;-51
2022/02/28 07:49:39;;;;;;;15.93;9.47;;;1.90;74.50;;;;;;5026618;28;20491;-51
2022/02/28 07:52:07;;;;;;;13.77;8.53;;;2.00;74.20;;;;;;5004547;28;20465;-51
2022/02/28 07:54:34;;;;;;;10.60;7.80;;;2.10;74.20;;;;;;5022206;28;20542;-51
2022/02/28 07:57:00;;;;;;;13.17;8.40;;;2.20;73.70;;;;;;5025745;28;20436;-51
2022/02/28 07:59:27;;;;;;;10.50;7.80;;;2.30;73.30;;;;;;5024674;28;21014;-51
2022/02/28 08:01:54;;;;;;;12.00;8.37;;;2.40;72.40;;;;;;5026606;28;20454;-51
2022/02/28 08:04:21;;;;;;;10.77;8.80;;;2.40;72.10;;;;;;5027317;28;20530;-51
2022/02/28 08:06:48;;;;;;;16.63;10.63;;;2.50;72.10;;;;;;5022766;28;20499;-51
2022/02/28 08:09:16;;;;;;;13.60;9.70;;;2.60;72.10;;;;;;5020375;28;21043;-51
2022/02/28 08:11:46;;;;;;;14.57;9.50;;;2.70;71.40;;;;;;5028576;28;20513;-51
2022/02/28 08:14:12;;;;;;;15.77;8.70;;;2.80;71.20;;;;;;5017576;28;20460;-51
2022/02/28 08:16:39;;;;;;;9.27;7.67;;;2.80;70.50;;;;;;5016614;28;21002;-51
2022/02/28 08:19:06;;;;;;;11.57;8.80;;;2.90;70.40;;;;;;5014938;28;20463;-50
2022/02/28 08:21:32;;;;;;;15.43;9.00;;;3.00;70.10;;;;;;5019335;28;20558;-51
2022/02/28 08:23:59;;;;;;;14.30;9.47;;;3.20;70.00;;;;;;5020699;28;20468;-51
2022/02/28 08:26:26;;;;;;;11.50;8.40;;;3.30;69.90;;;;;;5003005;28;20824;-51
2022/02/28 08:28:53;;;;;;;13.00;8.73;;;3.50;69.60;;;;;;5016425;28;20930;-51
2022/02/28 08:31:20;;;;;;;13.07;8.67;;;3.60;68.40;;;;;;5021097;28;20494;-51
2022/02/28 08:33:47;;;;;;;10.50;8.53;;;3.70;67.80;;;;;;4999541;28;20456;-50
2022/02/28 08:36:13;;;;;;;11.03;8.30;;;3.90;67.60;;;;;;5016455;28;21272;-51
2022/02/28 08:38:40;;;;;;;9.53;8.50;;;4.10;66.80;;;;;;5019175;28;20541;-50
2022/02/28 08:41:07;;;;;;;10.90;8.60;;;4.20;66.10;;;;;;5022090;28;20460;-50
2022/02/28 08:43:34;;;;;;;12.07;8.70;;;4.30;66.00;;;;;;5021685;28;20463;-50
2022/02/28 08:46:01;;;;;;;11.67;9.23;;;4.50;66.10;;;;;;5020419;28;20539;-50
2022/02/28 08:48:28;;;;;;;13.43;8.67;;;4.60;64.90;;;;;;5021282;28;20539;-51
2022/02/28 08:50:55;;;;;;;11.47;9.23;;;4.70;64.50;;;;;;5024569;28;20494;-51
2022/02/28 08:53:22;;;;;;;13.60;9.80;;;4.70;64.50;;;;;;5026031;28;20444;-51
2022/02/28 08:55:49;;;;;;;10.30;9.20;;;4.90;64.40;;;;;;5020392;28;20462;-51
2022/02/28 08:58:15;;;;;;;14.63;9.70;;;5.00;64.00;;;;;;5014717;28;20493;-51
2022/02/28 09:00:42;;;;;;;12.80;8.73;;;5.00;63.60;;;;;;5023443;28;21414;-51
2022/02/28 09:03:09;;;;;;;14.80;10.20;;;5.10;63.40;;;;;;5023228;28;20525;-51
2022/02/28 09:05:36;;;;;;;12.20;9.43;;;5.10;63.00;;;;;;5024440;28;20481;-51
2022/02/28 09:08:04;;;;;;;12.20;8.73;;;5.10;63.10;;;;;;5022796;28;20820;-51
2022/02/28 09:10:31;;;;;;;17.50;8.47;;;5.10;63.00;;;;;;5017337;28;20486;-51
2022/02/28 09:13:04;;;;;;;12.50;9.57;;;5.10;63.30;;;;;;5024750;28;20956;-51
2022/02/28 09:15:31;;;;;;;12.03;9.63;;;5.10;63.70;;;;;;5018397;28;20882;-51
2022/02/28 09:17:58;;;;;;;13.90;9.47;;;5.10;63.30;;;;;;5024550;28;20523;-49
2022/02/28 09:20:25;;;;;;;15.43;9.80;;;5.10;62.90;;;;;;5023022;28;20455;-49
2022/02/28 09:22:51;;;;;;;11.70;9.40;;;5.10;63.10;;;;;;5026576;28;20543;-51
2022/02/28 09:25:18;;;;;;;12.03;9.27;;;5.10;63.10;;;;;;5024133;28;20462;-50
2022/02/28 09:27:45;;;;;;;12.63;9.43;;;5.10;63.10;;;;;;5023996;28;20543;-51
2022/02/28 09:30:18;;;;;;;10.33;8.87;;;5.20;62.90;;;;;;5028145;28;20491;-50
2022/02/28 09:32:45;;;;;;;15.23;10.20;;;5.20;63.20;;;;;;5028368;28;20458;-50
2022/02/28 09:35:11;;;;;;;11.70;9.43;;;5.30;63.40;;;;;;5028143;28;20469;-50
2022/02/28 09:37:38;;;;;;;16.30;9.60;;;5.40;62.90;;;;;;5040691;28;20441;-50
2022/02/28 09:40:06;;;;;;;16.60;10.20;;;5.50;62.60;;;;;;5043579;28;20474;-50
2022/02/28 09:42:34;;;;;;;13.30;9.53;;;5.60;62.20;;;;;;5023063;28;20451;-50
2022/02/28 09:45:02;;;;;;;13.77;9.67;;;5.70;61.90;;;;;;5025614;28;20460;-51
2022/02/28 09:47:32;;;;;;;17.77;10.23;;;5.70;61.50;;;;;;5012904;28;20495;-51
2022/02/28 09:49:59;;;;;;;11.13;9.30;;;5.80;62.00;;;;;;5022979;28;21127;-51
2022/02/28 09:52:26;;;;;;;15.40;10.13;;;5.90;62.70;;;;;;5024077;28;20965;-51
2022/02/28 09:54:53;;;;;;;11.57;10.37;;;6.10;62.40;;;;;;5023010;28;20487;-51
2022/02/28 09:57:22;;;;;;;12.10;9.87;;;6.20;61.90;;;;;;5025573;28;20459;-51
2022/02/28 09:59:49;;;;;;;14.70;9.67;;;6.40;61.00;;;;;;5012203;28;21004;-51
2022/02/28 10:02:16;;;;;;;12.10;8.90;;;6.50;60.20;;;;;;5022827;28;20460;-51
2022/02/28 10:04:43;;;;;;;13.97;9.80;;;6.70;59.70;;;;;;5005449;28;20452;-51
2022/02/28 10:07:23;;;;;;;10.90;9.10;;;6.90;58.80;;;;;;5035685;28;20462;-51
2022/02/28 10:10:10;;;;;;;14.03;10.27;;;7.00;58.10;;;;;;5022872;28;20451;-51
2022/02/28 10:12:38;;;;;;;12.10;9.63;;;7.10;57.50;;;;;;5020945;28;20488;-51
2022/02/28 10:15:10;;;;;;;11.80;10.00;;;7.30;57.30;;;;;;5004875;28;20468;-51
2022/02/28 10:17:44;;;;;;;18.70;9.67;;;7.50;56.90;;;;;;5020201;28;20552;-51
2022/02/28 10:20:25;;;;;;;10.87;8.43;;;7.80;56.00;;;;;;5020372;28;20443;-51
2022/02/28 10:23:04;;;;;;;16.50;8.50;;;8.00;55.00;;;;;;5032990;28;20472;-52
2022/02/28 10:25:43;;;;;;;15.90;10.30;;;8.30;54.10;;;;;;5012351;28;20538;-51
2022/02/28 10:28:24;;;;;;;12.27;8.80;;;8.60;52.60;;;;;;5019575;28;20455;-51
2022/02/28 10:31:12;;;;;;;14.20;9.20;;;8.90;51.90;;;;;;5005794;28;20485;-52
2022/02/28 10:33:41;;;;;;;12.30;9.57;;;9.20;52.30;;;;;;5020882;28;20468;-51
2022/02/28 10:36:21;;;;;;;12.27;9.20;;;9.50;52.10;;;;;;5022180;28;21003;-51
2022/02/28 10:38:55;;;;;;;10.10;8.77;;;9.80;51.80;;;;;;5023899;28;20502;-52
2022/02/28 10:41:27;;;;;;;14.53;9.20;;;10.00;49.30;;;;;;5023401;28;20447;-51
2022/02/28 10:43:57;;;;;;;12.23;9.17;;;10.20;49.60;;;;;;5021261;28;20546;-52
2022/02/28 10:46:29;;;;;;;12.10;8.97;;;10.40;49.10;;;;;;5036812;28;21006;-51
2022/02/28 10:49:08;;;;;;;9.87;8.50;;;10.60;49.30;;;;;;5019822;28;20475;-51
2022/02/28 10:51:48;;;;;;;12.83;9.13;;;10.70;48.70;;;;;;5024101;28;20575;-51
2022/02/28 10:54:27;;;;;;;11.37;8.50;;;10.90;47.90;;;;;;5021841;28;20606;-51
2022/02/28 10:57:07;;;;;;;10.40;8.30;;;11.00;48.20;;;;;;5003657;28;20542;-52
2022/02/28 10:59:55;;;;;;;10.33;8.40;;;11.20;48.10;;;;;;5021510;28;20456;-52
2022/02/28 11:02:42;;;;;;;11.93;8.77;;;11.30;48.40;;;;;;5020024;28;20462;-52
2022/02/28 11:05:18;;;;;;;13.70;9.00;;;11.40;46.40;;;;;;5017289;28;20971;-51
2022/02/28 11:07:49;;;;;;;10.33;9.23;;;11.40;46.20;;;;;;5019743;28;20467;-52
2022/02/28 11:10:18;;;;;;;11.83;9.10;;;11.40;45.60;;;;;;5021349;28;21070;-51
2022/02/28 11:12:47;;;;;;;11.67;9.63;;;11.50;46.50;;;;;;5021135;28;20551;-51
2022/02/28 11:15:18;;;;;;;25.60;16.20;;;11.60;45.80;;;;;;5010706;28;20536;-52
2022/02/28 11:17:46;;;;;;;18.50;12.10;;;11.50;44.40;;;;;;5018404;28;20537;-51
2022/02/28 11:20:20;;;;;;;19.27;11.40;;;11.60;44.80;;;;;;5020333;28;20443;-51
2022/02/28 11:22:50;;;;;;;11.87;9.70;;;11.60;44.80;;;;;;5018982;28;20452;-51
2022/02/28 11:25:20;;;;;;;10.87;8.83;;;11.70;45.00;;;;;;5020094;28;21056;-51
2022/02/28 11:27:50;;;;;;;14.20;11.00;;;11.70;45.00;;;;;;5029885;28;20543;-51
2022/02/28 11:30:18;;;;;;;12.90;9.47;;;11.70;44.40;;;;;;5020923;28;20467;-51
2022/02/28 11:33:01;;;;;;;11.90;8.97;;;11.70;44.60;;;;;;5020686;28;20488;-51
2022/02/28 11:35:53;;;;;;;10.77;8.60;;;11.70;44.80;;;;;;5019011;28;20876;-51
2022/02/28 11:38:20;;;;;;;13.77;10.03;;;11.70;45.40;;;;;;5020990;28;20543;-51
2022/02/28 11:40:49;;;;;;;9.90;8.83;;;11.70;44.80;;;;;;5013942;28;20507;-51
2022/02/28 11:43:24;;;;;;;11.40;8.87;;;11.70;44.80;;;;;;5016242;28;20950;-52
2022/02/28 11:45:51;;;;;;;10.57;8.50;;;11.70;44.40;;;;;;5021752;28;20454;-51
2022/02/28 11:48:24;;;;;;;12.53;9.57;;;11.60;44.60;;;;;;5001395;28;20506;-51
2022/02/28 11:50:51;;;;;;;12.53;9.23;;;11.60;44.80;;;;;;5014979;28;20577;-51
2022/02/28 11:53:39;;;;;;;10.13;9.13;;;11.60;44.60;;;;;;5017679;28;20547;-51
2022/02/28 11:56:18;;;;;;;12.20;9.57;;;11.50;44.70;;;;;;5031519;28;21203;-51
2022/02/28 11:58:56;;;;;;;12.97;8.70;;;11.50;43.80;;;;;;5018301;28;20459;-51
2022/02/28 12:01:29;;;;;;;12.33;9.53;;;11.50;43.30;;;;;;5018097;28;20555;-51
2022/02/28 12:04:17;;;;;;;11.07;8.47;;;11.50;44.50;;;;;;5018711;28;20459;-51
2022/02/28 12:07:09;;;;;;;13.23;9.20;;;11.60;44.00;;;;;;5020192;28;20470;-51
2022/02/28 12:09:36;;;;;;;12.17;8.73;;;11.70;44.50;;;;;;5011690;28;20470;-51
2022/02/28 12:12:28;;;;;;;10.93;8.87;;;11.80;43.70;;;;;;5016098;28;20566;-50
2022/02/28 12:14:57;;;;;;;12.63;8.83;;;11.80;43.00;;;;;;5010163;28;20452;-51
2022/02/28 12:17:40;;;;;;;11.67;9.40;;;11.80;42.90;;;;;;5012110;28;20452;-51
2022/02/28 12:20:19;;;;;;;14.53;9.77;;;11.70;43.00;;;;;;5013360;28;20480;-51
2022/02/28 12:25:55;;;;;;;12.53;8.90;;;11.60;43.50;;;;;;5018446;28;20496;-51
2022/02/28 12:28:34;;;;;;;12.30;9.57;;;11.50;43.40;;;;;;5015249;28;20463;-50
2022/02/28 12:31:17;;;;;;;14.10;9.43;;;11.50;43.10;;;;;;5018891;28;20530;-51
2022/02/28 12:33:47;;;;;;;10.57;9.40;;;11.50;43.30;;;;;;5023742;28;20452;-51
2022/02/28 12:36:22;;;;;;;10.80;9.40;;;11.50;43.90;;;;;;5023357;28;20465;-51
2022/02/28 12:38:49;;;;;;;14.67;10.17;;;11.40;43.90;;;;;;5017679;28;20451;-51
2022/02/28 12:41:17;;;;;;;13.47;10.23;;;11.30;44.40;;;;;;5020425;28;20507;-51
2022/02/28 12:43:45;;;;;;;12.97;10.37;;;11.30;45.10;;;;;;5019295;28;20467;-51
2022/02/28 12:46:18;;;;;;;13.60;9.57;;;11.40;45.30;;;;;;5022047;28;20483;-51
2022/02/28 12:48:47;;;;;;;11.03;9.77;;;11.40;44.80;;;;;;5007853;28;20460;-51
2022/02/28 12:51:20;;;;;;;11.13;9.87;;;11.40;44.30;;;;;;5020684;28;20624;-51
2022/02/28 12:53:48;;;;;;;12.40;9.37;;;11.40;44.50;;;;;;5004517;28;20579;-51
2022/02/28 12:56:23;;;;;;;11.50;9.10;;;11.50;44.50;;;;;;5015919;28;20457;-51
2022/02/28 12:58:52;;;;;;;10.53;9.43;;;11.50;44.50;;;;;;5019357;28;20486;-51